Silver Dolphin — VC9170 — position and weather

sailwx.info

Track history (hours):
 
Tides and Currents Weather Stations Pressure Air Temp Water Temp Dewpoint Dewpoint Depression Visibility Wind Speed Wind Dir Waves Ship Positions

Silver Dolphin

Last reported at 2017-Dec-12 16:43 UTC. Time now 2017-Dec-17 09:46 UTC.
Position N 49°36' W 126°32'.

Length 26 m.

Type: Ship. MMSI: 316012880.

Date/timePositionNaut miles runAvg speedWind from/ knotsBaromVisibWave heightAir tempDewpointWater temp
2017-Dec-12 16:43N 49°36' W 126°32'2 8.6
2017-Dec-12 16:30N 49°35' W 126°34'4 8.0
2017-Dec-12 16:00N 49°32' W 126°37'4 8.3
2017-Dec-12 15:30N 49°28' W 126°38'5 9.2
2017-Dec-12 15:00N 49°23' W 126°37'5 9.6
2017-Dec-12 14:30N 49°20' W 126°32'5 9.2
2017-Dec-12 13:57N 49°17' W 126°25'5 9.6
2017-Dec-12 13:25N 49°14' W 126°19'4 9.4
2017-Dec-12 12:58N 49°11' W 126°14'5 9.3
2017-Dec-12 12:27N 49°09' W 126°08'4 9.0
2017-Dec-12 12:00N 49°06' W 126°03'4 8.7
2017-Dec-12 11:30N 49°04' W 125°57'4 8.6
2017-Dec-12 11:00N 49°01' W 125°52'4 8.6
2017-Dec-12 10:30N 48°59' W 125°47'5 9.1
2017-Dec-12 10:00N 48°56' W 125°41'4 8.8
2017-Dec-12 09:30N 48°54' W 125°36'4 8.4
2017-Dec-12 09:00N 48°51' W 125°30'4 8.3
2017-Dec-12 08:30N 48°49' W 125°25'5 9.1
2017-Dec-12 08:00N 48°46' W 125°20'5 9.2
2017-Dec-12 07:30N 48°44' W 125°14'4 9.1
2017-Dec-12 07:00N 48°41' W 125°08'5 9.2
2017-Dec-12 06:30N 48°39' W 125°02'4 9.1
2017-Dec-12 06:00N 48°37' W 124°56'5 9.2
2017-Dec-12 05:30N 48°36' W 124°49'4 7.9
2017-Dec-12 05:00N 48°34' W 124°44'4 7.3
2017-Dec-12 04:30N 48°32' W 124°39'5 9.6
2017-Dec-12 04:00N 48°31' W 124°32'5 9.6
2017-Dec-12 03:30N 48°28' W 124°26'5 9.7
2017-Dec-12 03:00N 48°26' W 124°19'5 9.9
2017-Dec-12 02:30N 48°24' W 124°12'510.1
2017-Dec-12 02:00N 48°23' W 124°05'510.2
2017-Dec-12 01:30N 48°21' W 123°57'510.4
2017-Dec-12 01:00N 48°20' W 123°50'611.3
2017-Dec-12 00:30N 48°19' W 123°42'5 9.5
2017-Dec-11 23:56N 48°18' W 123°34'611.2
2017-Dec-11 23:23N 48°21' W 123°25'511.8
2017-Dec-11 23:00N 48°23' W 123°19'5 9.9
2017-Dec-11 22:30N 48°26' W 123°13'510.6
2017-Dec-11 22:00N 48°30' W 123°17'510.2
2017-Dec-11 21:30N 48°35' W 123°19'10 9.9
2017-Dec-11 20:30N 48°45' W 123°21'5 9.4
2017-Dec-11 20:00N 48°49' W 123°24'5 9.4
2017-Dec-11 19:28N 48°54' W 123°28'10 8.4
2017-Dec-11 18:14N 49°03' W 123°35'2 8.7
2017-Dec-11 17:58N 49°05' W 123°36'5 8.7
2017-Dec-11 17:27N 49°09' W 123°38'22 9.3
2017-Dec-11 15:02N 49°21' W 124°07'1 9.4
2017-Dec-11 14:56N 49°22' W 124°09'5 9.2
2017-Dec-11 14:23N 49°24' W 124°15'4 9.4
2017-Dec-11 14:00N 49°26' W 124°20'11 9.3
2017-Dec-11 12:49N 49°34' W 124°32'4 9.5
2017-Dec-11 12:26N 49°36' W 124°36'4 9.6
2017-Dec-11 12:00N 49°39' W 124°41'5 9.5
2017-Dec-11 11:30N 49°43' W 124°46'4 9.0
2017-Dec-11 11:00N 49°46' W 124°51'5 9.2
2017-Dec-11 10:30N 49°49' W 124°56'5 9.3
2017-Dec-11 10:00N 49°52' W 125°01'5 9.3
2017-Dec-11 09:30N 49°56' W 125°06'5 9.0
2017-Dec-11 08:59N 49°59' W 125°11'4 8.2
2017-Dec-11 08:30N 50°02' W 125°14'5 9.4
2017-Dec-11 08:00N 50°06' W 125°18'4 8.7
2017-Dec-11 07:30N 50°10' W 125°22'0 0.2
2017-Dec-11 07:00N 50°10' W 125°22'0 0.0
2017-Dec-11 06:30N 50°10' W 125°22'0 0.0
2017-Dec-11 06:00N 50°10' W 125°22'0 0.0
2017-Dec-11 05:30N 50°10' W 125°22'0 0.0
2017-Dec-11 05:00N 50°10' W 125°22'0 0.0
2017-Dec-11 04:30N 50°10' W 125°22'0 0.0
2017-Dec-11 04:00N 50°10' W 125°22'0 0.0
2017-Dec-11 03:30N 50°10' W 125°22'0 0.0
2017-Dec-11 03:00N 50°10' W 125°22'0 0.0
2017-Dec-11 02:30N 50°10' W 125°22'0 0.1
2017-Dec-11 02:00N 50°10' W 125°22'0 0.0
2017-Dec-11 01:30N 50°10' W 125°22'0 0.1
2017-Dec-11 01:00N 50°10' W 125°22'0 0.0
2017-Dec-11 00:30N 50°10' W 125°22'0 0.0
2017-Dec-11 00:00N 50°10' W 125°22'0 0.0
2017-Dec-10 23:30N 50°10' W 125°22'0 0.0
2017-Dec-10 23:00N 50°10' W 125°22'0 0.0
2017-Dec-10 22:30N 50°10' W 125°22'0 0.0
2017-Dec-10 22:00N 50°10' W 125°22'0 0.0
2017-Dec-10 21:30N 50°10' W 125°22'0 0.0
2017-Dec-10 21:00N 50°10' W 125°22'0 0.0
2017-Dec-10 20:30N 50°10' W 125°22'0 0.0
2017-Dec-10 20:00N 50°10' W 125°22'0 0.0
2017-Dec-10 19:30N 50°10' W 125°22'0 0.0
2017-Dec-10 19:00N 50°10' W 125°22'0 0.1
2017-Dec-10 18:30N 50°10' W 125°22'0 0.1
2017-Dec-10 18:00N 50°10' W 125°22'0 0.1
2017-Dec-10 17:30N 50°10' W 125°22'0 0.1
2017-Dec-10 17:00N 50°10' W 125°22'0 0.0
2017-Dec-10 16:30N 50°10' W 125°22'0 0.0
2017-Dec-10 16:00N 50°10' W 125°22'0 0.0
2017-Dec-10 15:30N 50°10' W 125°22'0 0.0
2017-Dec-10 15:00N 50°10' W 125°22'0 0.1
2017-Dec-10 14:30N 50°10' W 125°22'0 0.1
2017-Dec-10 14:00N 50°10' W 125°22'0 0.0
2017-Dec-10 13:30N 50°10' W 125°22'0 0.0
2017-Dec-10 13:00N 50°10' W 125°22'0 0.0
2017-Dec-10 12:30N 50°10' W 125°22'0 0.1
2017-Dec-10 12:00N 50°10' W 125°22'0 0.1
2017-Dec-10 11:30N 50°10' W 125°22'0 0.1
2017-Dec-10 11:00N 50°10' W 125°22'0 0.1
2017-Dec-10 10:30N 50°10' W 125°22'0 0.0
2017-Dec-10 10:00N 50°10' W 125°22'0 0.0
2017-Dec-10 09:30N 50°10' W 125°22'0 0.0
2017-Dec-10 09:00N 50°10' W 125°22'0 0.0
2017-Dec-10 08:30N 50°10' W 125°22'0 0.0
2017-Dec-10 08:00N 50°10' W 125°22'0 0.0
2017-Dec-10 07:30N 50°10' W 125°22'0 0.5
2017-Dec-10 07:00N 50°10' W 125°22'5 8.9
2017-Dec-10 06:30N 50°14' W 125°23'41 8.6
2017-Dec-10 01:45N 50°29' W 126°23'2 8.2
2017-Dec-10 01:30N 50°29' W 126°26'4 7.1
2017-Dec-10 00:58N 50°30' W 126°32'4 6.8
2017-Dec-10 00:20N 50°31' W 126°38'3 7.3
2017-Dec-09 23:59N 50°33' W 126°41'8 5.2
2017-Dec-09 22:26N 50°38' W 126°32'5 9.9
2017-Dec-09 21:57N 50°38' W 126°24'1 0.1
2017-Dec-09 08:03N 50°38' W 126°23'22 7.7
2017-Dec-09 05:12N 50°42' W 126°57'10 8.0
2017-Dec-09 03:57N 50°44' W 127°12'4 8.3
2017-Dec-09 03:26N 50°45' W 127°19'4 8.3
2017-Dec-09 03:00N 50°46' W 127°25'4 7.5
2017-Dec-09 02:30N 50°43' W 127°29'0 0.2
2017-Dec-09 00:32N 50°43' W 127°29'0 0.0
2017-Dec-09 00:27N 50°43' W 127°29'0 0.0
2017-Dec-09 00:00N 50°43' W 127°29'0 0.0
2017-Dec-08 23:29N 50°43' W 127°29'0 0.0
2017-Dec-08 16:40N 50°43' W 127°29'1 5.2
2017-Dec-08 16:30N 50°43' W 127°28'0 0.7
2017-Dec-08 16:00N 50°43' W 127°28'0 0.0
2017-Dec-08 15:30N 50°43' W 127°28'0 0.0
2017-Dec-08 15:00N 50°43' W 127°28'0 0.0
2017-Dec-08 14:31N 50°43' W 127°28'0 0.0
2017-Dec-08 14:01N 50°43' W 127°28'0 0.0
2017-Dec-08 13:31N 50°43' W 127°28'0 0.0
2017-Dec-08 13:00N 50°43' W 127°28'0 0.0
2017-Dec-08 12:31N 50°43' W 127°28'0 0.0
2017-Dec-08 12:01N 50°43' W 127°28'0 0.0
2017-Dec-08 11:30N 50°43' W 127°28'0 0.0
2017-Dec-08 11:00N 50°43' W 127°28'0 0.0
2017-Dec-08 10:30N 50°43' W 127°28'0 0.0
2017-Dec-08 10:00N 50°43' W 127°28'0 0.0
2017-Dec-08 09:30N 50°43' W 127°28'0 0.0
2017-Dec-08 09:00N 50°43' W 127°28'0 0.0
2017-Dec-08 08:31N 50°43' W 127°28'0 0.0
2017-Dec-08 08:00N 50°43' W 127°28'0 0.0
2017-Dec-08 07:30N 50°43' W 127°28'0 0.0
2017-Dec-08 06:59N 50°43' W 127°28'3 6.8
2017-Dec-08 06:30N 50°46' W 127°29'4 8.1
2017-Dec-08 06:00N 50°48' W 127°35'4 8.5
2017-Dec-08 05:30N 50°50' W 127°41'4 8.4
2017-Dec-08 05:00N 50°51' W 127°47'19 7.5
2017-Dec-08 02:30N 50°51' W 128°17'4 7.6
2017-Dec-08 01:59N 50°49' W 128°23'90 8.9
2017-Dec-07 15:52N 49°36' W 126°59'710.4
2017-Dec-07 15:09N 49°32' W 126°50'1 9.0
2017-Dec-07 15:00N 49°32' W 126°48'5 9.3
2017-Dec-07 14:30N 49°33' W 126°41'5 9.6
2017-Dec-07 14:00N 49°35' W 126°34'5 8.8
2017-Dec-07 13:23N 49°39' W 126°28'  
2017-Dec-04 10:30N 50°43' W 127°28'0 0.2
2017-Dec-04 10:00N 50°43' W 127°28'3 6.5
2017-Dec-04 09:30N 50°45' W 127°24'4 8.6
2017-Dec-04 09:00N 50°43' W 127°19'4 8.9
2017-Dec-04 08:30N 50°39' W 127°14'4 7.7
2017-Dec-04 08:00N 50°37' W 127°09'4 7.9
2017-Dec-04 07:30N 50°37' W 127°03'6 7.9
2017-Dec-04 06:47N 50°34' W 126°55'3 8.9
2017-Dec-04 06:30N 50°34' W 126°51'5510.3
2017-Dec-04 01:10N 50°20' W 125°27'2 9.2
2017-Dec-04 01:00N 50°19' W 125°25'5 9.9
2017-Dec-04 00:30N 50°15' W 125°23'4 7.6
2017-Dec-04 00:00N 50°11' W 125°22'1 2.4
2017-Dec-03 23:30N 50°10' W 125°22'0 0.0
2017-Dec-03 23:01N 50°10' W 125°22'0 0.0
2017-Dec-03 22:30N 50°10' W 125°22'0 0.0
2017-Dec-03 22:01N 50°10' W 125°22'0 0.0
2017-Dec-03 21:30N 50°10' W 125°22'0 0.0
2017-Dec-03 21:01N 50°10' W 125°22'0 0.0
2017-Dec-03 20:30N 50°10' W 125°22'0 0.0
2017-Dec-03 20:01N 50°10' W 125°22'0 0.0
2017-Dec-03 19:31N 50°10' W 125°22'0 0.0
2017-Dec-03 19:01N 50°10' W 125°22'0 0.0
2017-Dec-03 18:31N 50°10' W 125°22'0 0.1
2017-Dec-03 18:01N 50°10' W 125°22'0 0.1
2017-Dec-03 17:31N 50°10' W 125°22'0 0.1
2017-Dec-03 17:00N 50°10' W 125°22'0 0.1
2017-Dec-03 16:30N 50°10' W 125°22'0 0.0
2017-Dec-03 16:00N 50°10' W 125°22'0 0.0
2017-Dec-03 15:30N 50°10' W 125°22'0 0.0
2017-Dec-03 15:01N 50°10' W 125°22'0 0.0
2017-Dec-03 14:30N 50°10' W 125°22'0 0.0
2017-Dec-03 14:01N 50°10' W 125°22'0 0.1
2017-Dec-03 13:31N 50°10' W 125°22'0 0.0
2017-Dec-03 13:00N 50°10' W 125°22'0 0.1
2017-Dec-03 12:30N 50°10' W 125°22'0 0.0
2017-Dec-03 12:00N 50°10' W 125°22'0 0.1
2017-Dec-03 11:30N 50°10' W 125°22'0 0.1
2017-Dec-03 11:00N 50°10' W 125°22'0 0.0
2017-Dec-03 10:31N 50°10' W 125°22'0 0.0
2017-Dec-03 10:01N 50°10' W 125°22'1 2.0
2017-Dec-03 09:31N 50°11' W 125°22'5 9.7
2017-Dec-03 09:00N 50°16' W 125°24'40 9.1
2017-Dec-03 04:39N 50°29' W 126°22'3 8.1
2017-Dec-03 04:17N 50°29' W 126°27'2 7.7
2017-Dec-03 03:59N 50°30' W 126°30'4 7.5
2017-Dec-03 03:29N 50°30' W 126°36'6 5.5
2017-Dec-03 02:22N 50°35' W 126°42'  
Track history (hours):
 
Tides and Currents Weather Stations Pressure Air Temp Water Temp Dewpoint Dewpoint Depression Visibility Wind Speed Wind Dir Waves Ship Positions

Silver Dolphin

Last reported at 2017-Dec-12 16:43 UTC. Time now 2017-Dec-17 09:46 UTC.
Position N 49°36' W 126°32'.

Length 26 m.

Type: Ship. MMSI: 316012880.

Date/timePositionNaut miles runAvg speedWind from/ knotsBaromVisibWave heightAir tempDewpointWater temp
2017-Dec-12 16:43N 49°36' W 126°32'2 8.6
2017-Dec-12 16:30N 49°35' W 126°34'4 8.0
2017-Dec-12 16:00N 49°32' W 126°37'4 8.3
2017-Dec-12 15:30N 49°28' W 126°38'5 9.2
2017-Dec-12 15:00N 49°23' W 126°37'5 9.6
2017-Dec-12 14:30N 49°20' W 126°32'5 9.2
2017-Dec-12 13:57N 49°17' W 126°25'5 9.6
2017-Dec-12 13:25N 49°14' W 126°19'4 9.4
2017-Dec-12 12:58N 49°11' W 126°14'5 9.3
2017-Dec-12 12:27N 49°09' W 126°08'4 9.0
2017-Dec-12 12:00N 49°06' W 126°03'4 8.7
2017-Dec-12 11:30N 49°04' W 125°57'4 8.6
2017-Dec-12 11:00N 49°01' W 125°52'4 8.6
2017-Dec-12 10:30N 48°59' W 125°47'5 9.1
2017-Dec-12 10:00N 48°56' W 125°41'4 8.8
2017-Dec-12 09:30N 48°54' W 125°36'4 8.4
2017-Dec-12 09:00N 48°51' W 125°30'4 8.3
2017-Dec-12 08:30N 48°49' W 125°25'5 9.1
2017-Dec-12 08:00N 48°46' W 125°20'5 9.2
2017-Dec-12 07:30N 48°44' W 125°14'4 9.1
2017-Dec-12 07:00N 48°41' W 125°08'5 9.2
2017-Dec-12 06:30N 48°39' W 125°02'4 9.1
2017-Dec-12 06:00N 48°37' W 124°56'5 9.2
2017-Dec-12 05:30N 48°36' W 124°49'4 7.9
2017-Dec-12 05:00N 48°34' W 124°44'4 7.3
2017-Dec-12 04:30N 48°32' W 124°39'5 9.6
2017-Dec-12 04:00N 48°31' W 124°32'5 9.6
2017-Dec-12 03:30N 48°28' W 124°26'5 9.7
2017-Dec-12 03:00N 48°26' W 124°19'5 9.9
2017-Dec-12 02:30N 48°24' W 124°12'510.1
2017-Dec-12 02:00N 48°23' W 124°05'510.2
2017-Dec-12 01:30N 48°21' W 123°57'510.4
2017-Dec-12 01:00N 48°20' W 123°50'611.3
2017-Dec-12 00:30N 48°19' W 123°42'5 9.5
2017-Dec-11 23:56N 48°18' W 123°34'611.2
2017-Dec-11 23:23N 48°21' W 123°25'511.8
2017-Dec-11 23:00N 48°23' W 123°19'5 9.9
2017-Dec-11 22:30N 48°26' W 123°13'510.6
2017-Dec-11 22:00N 48°30' W 123°17'510.2
2017-Dec-11 21:30N 48°35' W 123°19'10 9.9
2017-Dec-11 20:30N 48°45' W 123°21'5 9.4
2017-Dec-11 20:00N 48°49' W 123°24'5 9.4
2017-Dec-11 19:28N 48°54' W 123°28'10 8.4
2017-Dec-11 18:14N 49°03' W 123°35'2 8.7
2017-Dec-11 17:58N 49°05' W 123°36'5 8.7
2017-Dec-11 17:27N 49°09' W 123°38'22 9.3
2017-Dec-11 15:02N 49°21' W 124°07'1 9.4
2017-Dec-11 14:56N 49°22' W 124°09'5 9.2
2017-Dec-11 14:23N 49°24' W 124°15'4 9.4
2017-Dec-11 14:00N 49°26' W 124°20'11 9.3
2017-Dec-11 12:49N 49°34' W 124°32'4 9.5
2017-Dec-11 12:26N 49°36' W 124°36'4 9.6
2017-Dec-11 12:00N 49°39' W 124°41'5 9.5
2017-Dec-11 11:30N 49°43' W 124°46'4 9.0
2017-Dec-11 11:00N 49°46' W 124°51'5 9.2
2017-Dec-11 10:30N 49°49' W 124°56'5 9.3
2017-Dec-11 10:00N 49°52' W 125°01'5 9.3
2017-Dec-11 09:30N 49°56' W 125°06'5 9.0
2017-Dec-11 08:59N 49°59' W 125°11'4 8.2
2017-Dec-11 08:30N 50°02' W 125°14'5 9.4
2017-Dec-11 08:00N 50°06' W 125°18'4 8.7
2017-Dec-11 07:30N 50°10' W 125°22'0 0.2
2017-Dec-11 07:00N 50°10' W 125°22'0 0.0
2017-Dec-11 06:30N 50°10' W 125°22'0 0.0
2017-Dec-11 06:00N 50°10' W 125°22'0 0.0
2017-Dec-11 05:30N 50°10' W 125°22'0 0.0
2017-Dec-11 05:00N 50°10' W 125°22'0 0.0
2017-Dec-11 04:30N 50°10' W 125°22'0 0.0
2017-Dec-11 04:00N 50°10' W 125°22'0 0.0
2017-Dec-11 03:30N 50°10' W 125°22'0 0.0
2017-Dec-11 03:00N 50°10' W 125°22'0 0.0
2017-Dec-11 02:30N 50°10' W 125°22'0 0.1
2017-Dec-11 02:00N 50°10' W 125°22'0 0.0
2017-Dec-11 01:30N 50°10' W 125°22'0 0.1
2017-Dec-11 01:00N 50°10' W 125°22'0 0.0
2017-Dec-11 00:30N 50°10' W 125°22'0 0.0
2017-Dec-11 00:00N 50°10' W 125°22'0 0.0
2017-Dec-10 23:30N 50°10' W 125°22'0 0.0
2017-Dec-10 23:00N 50°10' W 125°22'0 0.0
2017-Dec-10 22:30N 50°10' W 125°22'0 0.0
2017-Dec-10 22:00N 50°10' W 125°22'0 0.0
2017-Dec-10 21:30N 50°10' W 125°22'0 0.0
2017-Dec-10 21:00N 50°10' W 125°22'0 0.0
2017-Dec-10 20:30N 50°10' W 125°22'0 0.0
2017-Dec-10 20:00N 50°10' W 125°22'0 0.0
2017-Dec-10 19:30N 50°10' W 125°22'0 0.0
2017-Dec-10 19:00N 50°10' W 125°22'0 0.1
2017-Dec-10 18:30N 50°10' W 125°22'0 0.1
2017-Dec-10 18:00N 50°10' W 125°22'0 0.1
2017-Dec-10 17:30N 50°10' W 125°22'0 0.1
2017-Dec-10 17:00N 50°10' W 125°22'0 0.0
2017-Dec-10 16:30N 50°10' W 125°22'0 0.0
2017-Dec-10 16:00N 50°10' W 125°22'0 0.0
2017-Dec-10 15:30N 50°10' W 125°22'0 0.0
2017-Dec-10 15:00N 50°10' W 125°22'0 0.1
2017-Dec-10 14:30N 50°10' W 125°22'0 0.1
2017-Dec-10 14:00N 50°10' W 125°22'0 0.0
2017-Dec-10 13:30N 50°10' W 125°22'0 0.0
2017-Dec-10 13:00N 50°10' W 125°22'0 0.0
2017-Dec-10 12:30N 50°10' W 125°22'0 0.1
2017-Dec-10 12:00N 50°10' W 125°22'0 0.1
2017-Dec-10 11:30N 50°10' W 125°22'0 0.1
2017-Dec-10 11:00N 50°10' W 125°22'0 0.1
2017-Dec-10 10:30N 50°10' W 125°22'0 0.0
2017-Dec-10 10:00N 50°10' W 125°22'0 0.0
2017-Dec-10 09:30N 50°10' W 125°22'0 0.0
2017-Dec-10 09:00N 50°10' W 125°22'0 0.0
2017-Dec-10 08:30N 50°10' W 125°22'0 0.0
2017-Dec-10 08:00N 50°10' W 125°22'0 0.0
2017-Dec-10 07:30N 50°10' W 125°22'0 0.5
2017-Dec-10 07:00N 50°10' W 125°22'5 8.9
2017-Dec-10 06:30N 50°14' W 125°23'41 8.6
2017-Dec-10 01:45N 50°29' W 126°23'2 8.2
2017-Dec-10 01:30N 50°29' W 126°26'4 7.1
2017-Dec-10 00:58N 50°30' W 126°32'4 6.8
2017-Dec-10 00:20N 50°31' W 126°38'3 7.3
2017-Dec-09 23:59N 50°33' W 126°41'8 5.2
2017-Dec-09 22:26N 50°38' W 126°32'5 9.9
2017-Dec-09 21:57N 50°38' W 126°24'1 0.1
2017-Dec-09 08:03N 50°38' W 126°23'22 7.7
2017-Dec-09 05:12N 50°42' W 126°57'10 8.0
2017-Dec-09 03:57N 50°44' W 127°12'4 8.3
2017-Dec-09 03:26N 50°45' W 127°19'4 8.3
2017-Dec-09 03:00N 50°46' W 127°25'4 7.5
2017-Dec-09 02:30N 50°43' W 127°29'0 0.2
2017-Dec-09 00:32N 50°43' W 127°29'0 0.0
2017-Dec-09 00:27N 50°43' W 127°29'0 0.0
2017-Dec-09 00:00N 50°43' W 127°29'0 0.0
2017-Dec-08 23:29N 50°43' W 127°29'0 0.0
2017-Dec-08 16:40N 50°43' W 127°29'1 5.2
2017-Dec-08 16:30N 50°43' W 127°28'0 0.7
2017-Dec-08 16:00N 50°43' W 127°28'0 0.0
2017-Dec-08 15:30N 50°43' W 127°28'0 0.0
2017-Dec-08 15:00N 50°43' W 127°28'0 0.0
2017-Dec-08 14:31N 50°43' W 127°28'0 0.0
2017-Dec-08 14:01N 50°43' W 127°28'0 0.0
2017-Dec-08 13:31N 50°43' W 127°28'0 0.0
2017-Dec-08 13:00N 50°43' W 127°28'0 0.0
2017-Dec-08 12:31N 50°43' W 127°28'0 0.0
2017-Dec-08 12:01N 50°43' W 127°28'0 0.0
2017-Dec-08 11:30N 50°43' W 127°28'0 0.0
2017-Dec-08 11:00N 50°43' W 127°28'0 0.0
2017-Dec-08 10:30N 50°43' W 127°28'0 0.0
2017-Dec-08 10:00N 50°43' W 127°28'0 0.0
2017-Dec-08 09:30N 50°43' W 127°28'0 0.0
2017-Dec-08 09:00N 50°43' W 127°28'0 0.0
2017-Dec-08 08:31N 50°43' W 127°28'0 0.0
2017-Dec-08 08:00N 50°43' W 127°28'0 0.0
2017-Dec-08 07:30N 50°43' W 127°28'0 0.0
2017-Dec-08 06:59N 50°43' W 127°28'3 6.8
2017-Dec-08 06:30N 50°46' W 127°29'4 8.1
2017-Dec-08 06:00N 50°48' W 127°35'4 8.5
2017-Dec-08 05:30N 50°50' W 127°41'4 8.4
2017-Dec-08 05:00N 50°51' W 127°47'19 7.5
2017-Dec-08 02:30N 50°51' W 128°17'4 7.6
2017-Dec-08 01:59N 50°49' W 128°23'90 8.9
2017-Dec-07 15:52N 49°36' W 126°59'710.4
2017-Dec-07 15:09N 49°32' W 126°50'1 9.0
2017-Dec-07 15:00N 49°32' W 126°48'5 9.3
2017-Dec-07 14:30N 49°33' W 126°41'5 9.6
2017-Dec-07 14:00N 49°35' W 126°34'5 8.8
2017-Dec-07 13:23N 49°39' W 126°28'  
2017-Dec-04 10:30N 50°43' W 127°28'0 0.2
2017-Dec-04 10:00N 50°43' W 127°28'3 6.5
2017-Dec-04 09:30N 50°45' W 127°24'4 8.6
2017-Dec-04 09:00N 50°43' W 127°19'4 8.9
2017-Dec-04 08:30N 50°39' W 127°14'4 7.7
2017-Dec-04 08:00N 50°37' W 127°09'4 7.9
2017-Dec-04 07:30N 50°37' W 127°03'6 7.9
2017-Dec-04 06:47N 50°34' W 126°55'3 8.9
2017-Dec-04 06:30N 50°34' W 126°51'5510.3
2017-Dec-04 01:10N 50°20' W 125°27'2 9.2
2017-Dec-04 01:00N 50°19' W 125°25'5 9.9
2017-Dec-04 00:30N 50°15' W 125°23'4 7.6
2017-Dec-04 00:00N 50°11' W 125°22'1 2.4
2017-Dec-03 23:30N 50°10' W 125°22'0 0.0
2017-Dec-03 23:01N 50°10' W 125°22'0 0.0
2017-Dec-03 22:30N 50°10' W 125°22'0 0.0
2017-Dec-03 22:01N 50°10' W 125°22'0 0.0
2017-Dec-03 21:30N 50°10' W 125°22'0 0.0
2017-Dec-03 21:01N 50°10' W 125°22'0 0.0
2017-Dec-03 20:30N 50°10' W 125°22'0 0.0
2017-Dec-03 20:01N 50°10' W 125°22'0 0.0
2017-Dec-03 19:31N 50°10' W 125°22'0 0.0
2017-Dec-03 19:01N 50°10' W 125°22'0 0.0
2017-Dec-03 18:31N 50°10' W 125°22'0 0.1
2017-Dec-03 18:01N 50°10' W 125°22'0 0.1
2017-Dec-03 17:31N 50°10' W 125°22'0 0.1
2017-Dec-03 17:00N 50°10' W 125°22'0 0.1
2017-Dec-03 16:30N 50°10' W 125°22'0 0.0
2017-Dec-03 16:00N 50°10' W 125°22'0 0.0
2017-Dec-03 15:30N 50°10' W 125°22'0 0.0
2017-Dec-03 15:01N 50°10' W 125°22'0 0.0
2017-Dec-03 14:30N 50°10' W 125°22'0 0.0
2017-Dec-03 14:01N 50°10' W 125°22'0 0.1
2017-Dec-03 13:31N 50°10' W 125°22'0 0.0
2017-Dec-03 13:00N 50°10' W 125°22'0 0.1
2017-Dec-03 12:30N 50°10' W 125°22'0 0.0
2017-Dec-03 12:00N 50°10' W 125°22'0 0.1
2017-Dec-03 11:30N 50°10' W 125°22'0 0.1
2017-Dec-03 11:00N 50°10' W 125°22'0 0.0
2017-Dec-03 10:31N 50°10' W 125°22'0 0.0
2017-Dec-03 10:01N 50°10' W 125°22'1 2.0
2017-Dec-03 09:31N 50°11' W 125°22'5 9.7
2017-Dec-03 09:00N 50°16' W 125°24'40 9.1
2017-Dec-03 04:39N 50°29' W 126°22'3 8.1
2017-Dec-03 04:17N 50°29' W 126°27'2 7.7
2017-Dec-03 03:59N 50°30' W 126°30'4 7.5
2017-Dec-03 03:29N 50°30' W 126°36'6 5.5
2017-Dec-03 02:22N 50°35' W 126°42'  

Dump ship's entire track history